sensor_id;sensor_type;location;lat;lon;timestamp;pressure;altitude;pressure_sealevel;temperature;humidity
31121;BME280;17770;45.966;13.632;2023-06-14T00:01:25;99988.03;;;27.35;43.23
31121;BME280;17770;45.966;13.632;2023-06-14T00:03:52;99984.56;;;27.34;43.33
31121;BME280;17770;45.966;13.632;2023-06-14T00:06:19;99984.56;;;27.34;43.18
31121;BME280;17770;45.966;13.632;2023-06-14T00:08:45;99986.38;;;27.34;43.42
31121;BME280;17770;45.966;13.632;2023-06-14T00:11:11;99983.72;;;27.34;43.38
31121;BME280;17770;45.966;13.632;2023-06-14T00:13:37;99984.72;;;27.33;43.30
31121;BME280;17770;45.966;13.632;2023-06-14T00:16:03;99978.59;;;27.32;43.50
31121;BME280;17770;45.966;13.632;2023-06-14T00:18:29;99974.28;;;27.31;43.56
31121;BME280;17770;45.966;13.632;2023-06-14T00:20:56;99964.53;;;27.32;43.70
31121;BME280;17770;45.966;13.632;2023-06-14T00:23:22;99962.84;;;27.31;43.92
31121;BME280;17770;45.966;13.632;2023-06-14T00:25:48;99960.38;;;27.29;43.83
31121;BME280;17770;45.966;13.632;2023-06-14T00:28:14;99957.56;;;27.31;43.83
31121;BME280;17770;45.966;13.632;2023-06-14T00:30:39;99959.03;;;27.25;43.90
31121;BME280;17770;45.966;13.632;2023-06-14T00:33:05;99956.91;;;27.29;43.69
31121;BME280;17770;45.966;13.632;2023-06-14T00:35:31;99962.22;;;27.29;43.87
31121;BME280;17770;45.966;13.632;2023-06-14T00:37:57;99959.56;;;27.29;43.66
31121;BME280;17770;45.966;13.632;2023-06-14T00:40:23;99963.19;;;27.28;43.92
31121;BME280;17770;45.966;13.632;2023-06-14T00:42:49;99958.72;;;27.28;43.93
31121;BME280;17770;45.966;13.632;2023-06-14T00:45:15;99948.25;;;27.27;43.66
31121;BME280;17770;45.966;13.632;2023-06-14T00:47:41;99949.06;;;27.27;43.86
31121;BME280;17770;45.966;13.632;2023-06-14T00:50:09;99949.06;;;27.27;43.95
31121;BME280;17770;45.966;13.632;2023-06-14T00:52:36;99946.59;;;27.26;43.94
31121;BME280;17770;45.966;13.632;2023-06-14T00:55:02;99944.94;;;27.25;43.73
31121;BME280;17770;45.966;13.632;2023-06-14T00:57:29;99940.47;;;27.25;43.76
31121;BME280;17770;45.966;13.632;2023-06-14T00:59:55;99945.94;;;27.24;43.76
31121;BME280;17770;45.966;13.632;2023-06-14T01:02:21;99940.63;;;27.24;43.78
31121;BME280;17770;45.966;13.632;2023-06-14T01:04:47;99935.47;;;27.22;43.71
31121;BME280;17770;45.966;13.632;2023-06-14T01:12:11;99926.03;;;27.20;43.68
31121;BME280;17770;45.966;13.632;2023-06-14T01:14:41;99935.81;;;27.19;43.64
31121;BME280;17770;45.966;13.632;2023-06-14T01:17:07;99928.19;;;27.16;44.05
31121;BME280;17770;45.966;13.632;2023-06-14T01:19:41;99922.06;;;27.16;43.86
31121;BME280;17770;45.966;13.632;2023-06-14T01:22:08;99926.53;;;27.15;43.96
31121;BME280;17770;45.966;13.632;2023-06-14T01:24:34;99918.75;;;27.14;44.07
31121;BME280;17770;45.966;13.632;2023-06-14T01:27:00;99919.72;;;27.13;43.35
31121;BME280;17770;45.966;13.632;2023-06-14T01:29:27;99912.63;;;27.13;43.54
31121;BME280;17770;45.966;13.632;2023-06-14T01:31:58;99915.28;;;27.13;43.53
31121;BME280;17770;45.966;13.632;2023-06-14T01:34:24;99911.78;;;27.13;44.01
31121;BME280;17770;45.966;13.632;2023-06-14T01:36:50;99913.63;;;27.12;43.77
31121;BME280;17770;45.966;13.632;2023-06-14T01:39:17;99914.28;;;27.14;43.89
31121;BME280;17770;45.966;13.632;2023-06-14T01:41:43;99913.63;;;27.12;44.26
31121;BME280;17770;45.966;13.632;2023-06-14T01:44:11;99916.28;;;27.12;44.22
31121;BME280;17770;45.966;13.632;2023-06-14T01:46:38;99908.47;;;27.11;44.43
31121;BME280;17770;45.966;13.632;2023-06-14T01:49:04;99912.13;;;27.10;44.75
31121;BME280;17770;45.966;13.632;2023-06-14T01:51:30;99899.72;;;27.10;44.41
31121;BME280;17770;45.966;13.632;2023-06-14T01:53:56;99911.13;;;27.11;44.28
31121;BME280;17770;45.966;13.632;2023-06-14T01:56:23;99917.25;;;27.11;44.37
31121;BME280;17770;45.966;13.632;2023-06-14T01:58:49;99905.69;;;27.12;44.48
31121;BME280;17770;45.966;13.632;2023-06-14T02:01:15;99916.75;;;27.16;44.59
31121;BME280;17770;45.966;13.632;2023-06-14T02:03:44;99910.50;;;27.17;44.66
31121;BME280;17770;45.966;13.632;2023-06-14T02:06:10;99905.81;;;27.11;44.84
31121;BME280;17770;45.966;13.632;2023-06-14T02:08:36;99907.66;;;27.10;44.32
31121;BME280;17770;45.966;13.632;2023-06-14T02:11:02;99905.97;;;27.09;44.91
31121;BME280;17770;45.966;13.632;2023-06-14T02:13:28;99907.81;;;27.09;45.12
31121;BME280;17770;45.966;13.632;2023-06-14T02:15:54;99906.16;;;27.08;45.03
31121;BME280;17770;45.966;13.632;2023-06-14T02:18:21;99910.47;;;27.09;44.68
31121;BME280;17770;45.966;13.632;2023-06-14T02:20:47;99913.13;;;27.09;44.97
31121;BME280;17770;45.966;13.632;2023-06-14T02:23:13;99904.34;;;27.08;44.77
31121;BME280;17770;45.966;13.632;2023-06-14T02:25:38;99910.47;;;27.09;44.87
31121;BME280;17770;45.966;13.632;2023-06-14T02:28:07;99909.63;;;27.08;45.37
31121;BME280;17770;45.966;13.632;2023-06-14T02:30:33;99908.00;;;27.07;44.79
31121;BME280;17770;45.966;13.632;2023-06-14T02:32:58;99910.63;;;27.07;45.24
31121;BME280;17770;45.966;13.632;2023-06-14T02:35:24;99904.50;;;27.07;45.21
31121;BME280;17770;45.966;13.632;2023-06-14T02:37:52;99908.13;;;27.06;45.30
31121;BME280;17770;45.966;13.632;2023-06-14T02:40:18;99908.13;;;27.06;45.38
31121;BME280;17770;45.966;13.632;2023-06-14T02:42:44;99904.66;;;27.05;45.38
31121;BME280;17770;45.966;13.632;2023-06-14T02:45:10;99904.66;;;27.05;44.94
31121;BME280;17770;45.966;13.632;2023-06-14T02:47:36;99903.66;;;27.06;45.28
31121;BME280;17770;45.966;13.632;2023-06-14T02:50:02;99909.13;;;27.05;44.77
31121;BME280;17770;45.966;13.632;2023-06-14T02:52:28;99902.19;;;27.12;44.71
31121;BME280;17770;45.966;13.632;2023-06-14T02:54:54;99900.88;;;27.16;44.55
31121;BME280;17770;45.966;13.632;2023-06-14T02:57:21;99897.25;;;27.17;44.73
31121;BME280;17770;45.966;13.632;2023-06-14T02:59:47;99896.25;;;27.18;44.87
31121;BME280;17770;45.966;13.632;2023-06-14T03:02:13;99900.72;;;27.17;44.89
31121;BME280;17770;45.966;13.632;2023-06-14T03:04:40;99899.88;;;27.09;44.78
31121;BME280;17770;45.966;13.632;2023-06-14T03:07:11;99898.84;;;27.02;44.84
31121;BME280;17770;45.966;13.632;2023-06-14T03:09:40;99899.03;;;27.00;45.10
31121;BME280;17770;45.966;13.632;2023-06-14T03:12:09;99904.47;;;26.99;44.91
31121;BME280;17770;45.966;13.632;2023-06-14T03:14:35;99907.44;;;26.96;45.19
31121;BME280;17770;45.966;13.632;2023-06-14T03:17:02;99912.88;;;26.94;45.06
31121;BME280;17770;45.966;13.632;2023-06-14T03:19:31;99903.13;;;26.94;45.34
31121;BME280;17770;45.966;13.632;2023-06-14T03:21:57;99907.44;;;26.96;45.17
31121;BME280;17770;45.966;13.632;2023-06-14T03:24:25;99908.59;;;26.93;45.21
31121;BME280;17770;45.966;13.632;2023-06-14T03:26:55;99913.03;;;26.92;45.31
31121;BME280;17770;45.966;13.632;2023-06-14T03:29:23;99907.75;;;26.92;45.54
31121;BME280;17770;45.966;13.632;2023-06-14T03:31:56;99912.25;;;26.92;45.52
31121;BME280;17770;45.966;13.632;2023-06-14T03:34:22;99907.91;;;26.91;45.40
31121;BME280;17770;45.966;13.632;2023-06-14T03:36:48;99903.28;;;26.93;45.06
31121;BME280;17770;45.966;13.632;2023-06-14T03:39:15;99915.09;;;27.07;45.19
31121;BME280;17770;45.966;13.632;2023-06-14T03:41:41;99915.41;;;26.96;45.20
31121;BME280;17770;45.966;13.632;2023-06-14T03:44:06;99910.56;;;26.91;45.47
31121;BME280;17770;45.966;13.632;2023-06-14T03:46:32;99913.38;;;26.89;45.07
31121;BME280;17770;45.966;13.632;2023-06-14T03:48:58;99921.47;;;26.88;44.90
31121;BME280;17770;45.966;13.632;2023-06-14T03:51:25;99921.63;;;26.86;44.98
31121;BME280;17770;45.966;13.632;2023-06-14T03:53:52;99924.28;;;26.86;45.08
31121;BME280;17770;45.966;13.632;2023-06-14T03:56:18;99933.06;;;26.87;44.71
31121;BME280;17770;45.966;13.632;2023-06-14T03:58:43;99926.94;;;26.86;44.96
31121;BME280;17770;45.966;13.632;2023-06-14T04:01:09;99928.75;;;26.86;44.92
31121;BME280;17770;45.966;13.632;2023-06-14T04:03:38;99928.09;;;26.84;44.97
31121;BME280;17770;45.966;13.632;2023-06-14T04:06:04;99932.38;;;26.85;44.73
31121;BME280;17770;45.966;13.632;2023-06-14T04:08:31;99943.13;;;26.83;44.56
31121;BME280;17770;45.966;13.632;2023-06-14T04:10:58;99933.38;;;26.84;44.61
31121;BME280;17770;45.966;13.632;2023-06-14T04:13:23;99944.94;;;26.83;44.62
31121;BME280;17770;45.966;13.632;2023-06-14T04:15:50;99940.66;;;26.82;44.82
31121;BME280;17770;45.966;13.632;2023-06-14T04:18:22;99952.03;;;26.82;44.72
31121;BME280;17770;45.966;13.632;2023-06-14T04:20:49;99948.59;;;26.82;44.67
31121;BME280;17770;45.966;13.632;2023-06-14T04:23:16;99946.91;;;26.81;45.10
31121;BME280;17770;45.966;13.632;2023-06-14T04:25:44;99948.75;;;26.80;45.16
31121;BME280;17770;45.966;13.632;2023-06-14T04:28:11;99951.41;;;26.80;44.78
31121;BME280;17770;45.966;13.632;2023-06-14T04:30:37;99957.50;;;26.81;45.01
31121;BME280;17770;45.966;13.632;2023-06-14T04:33:04;99955.84;;;26.80;45.00
31121;BME280;17770;45.966;13.632;2023-06-14T04:35:32;99956.69;;;26.80;44.82
31121;BME280;17770;45.966;13.632;2023-06-14T04:37:58;99947.91;;;26.80;45.12
31121;BME280;17770;45.966;13.632;2023-06-14T04:40:25;99956.22;;;26.85;44.62
31121;BME280;17770;45.966;13.632;2023-06-14T04:42:51;99958.00;;;26.84;44.82
31121;BME280;17770;45.966;13.632;2023-06-14T04:45:19;99957.66;;;26.79;44.91
31121;BME280;17770;45.966;13.632;2023-06-14T04:47:45;99958.81;;;26.77;45.03
31121;BME280;17770;45.966;13.632;2023-06-14T04:50:11;99953.38;;;26.78;45.03
31121;BME280;17770;45.966;13.632;2023-06-14T04:52:39;99962.31;;;26.77;45.27
31121;BME280;17770;45.966;13.632;2023-06-14T04:55:05;99959.66;;;26.77;45.27
31121;BME280;17770;45.966;13.632;2023-06-14T04:57:32;99958.66;;;26.78;45.08
31121;BME280;17770;45.966;13.632;2023-06-14T04:59:59;99963.94;;;26.78;45.21
31121;BME280;17770;45.966;13.632;2023-06-14T05:02:28;99965.75;;;26.78;44.97
31121;BME280;17770;45.966;13.632;2023-06-14T05:04:56;99963.13;;;26.78;45.03
31121;BME280;17770;45.966;13.632;2023-06-14T05:07:23;99964.13;;;26.77;45.10
31121;BME280;17770;45.966;13.632;2023-06-14T05:09:50;99964.94;;;26.77;45.14
31121;BME280;17770;45.966;13.632;2023-06-14T05:12:16;99962.81;;;26.55;45.64
31121;BME280;17770;45.966;13.632;2023-06-14T05:14:45;99967.38;;;26.45;46.17
31121;BME280;17770;45.966;13.632;2023-06-14T05:17:11;99970.16;;;26.44;45.83
31121;BME280;17770;45.966;13.632;2023-06-14T05:19:37;99970.31;;;26.42;46.21
31121;BME280;17770;45.966;13.632;2023-06-14T05:22:03;99969.50;;;26.42;45.96
31121;BME280;17770;45.966;13.632;2023-06-14T05:24:29;99982.22;;;26.64;45.60
31121;BME280;17770;45.966;13.632;2023-06-14T05:26:56;99982.13;;;26.73;45.01
31121;BME280;17770;45.966;13.632;2023-06-14T05:29:22;99982.63;;;26.77;45.05
31121;BME280;17770;45.966;13.632;2023-06-14T05:31:48;99985.28;;;26.77;45.24
31121;BME280;17770;45.966;13.632;2023-06-14T05:34:13;99991.41;;;26.77;44.95
31121;BME280;17770;45.966;13.632;2023-06-14T05:36:39;99990.59;;;26.77;44.90
31121;BME280;17770;45.966;13.632;2023-06-14T05:39:05;99992.38;;;26.76;44.98
31121;BME280;17770;45.966;13.632;2023-06-14T05:41:32;99996.03;;;26.75;45.26
31121;BME280;17770;45.966;13.632;2023-06-14T05:43:58;99996.84;;;26.76;44.92
31121;BME280;17770;45.966;13.632;2023-06-14T05:46:25;99989.91;;;26.75;44.62
31121;BME280;17770;45.966;13.632;2023-06-14T05:48:52;100002.28;;;26.74;44.91
31121;BME280;17770;45.966;13.632;2023-06-14T05:51:18;100001.50;;;26.74;45.02
31121;BME280;17770;45.966;13.632;2023-06-14T05:53:47;100002.28;;;26.74;45.07
31121;BME280;17770;45.966;13.632;2023-06-14T05:56:14;100002.28;;;26.74;44.61
31121;BME280;17770;45.966;13.632;2023-06-14T05:58:40;100004.28;;;26.72;44.49
31121;BME280;17770;45.966;13.632;2023-06-14T06:01:06;100008.44;;;26.75;45.05
31121;BME280;17770;45.966;13.632;2023-06-14T06:03:32;100021.34;;;26.78;44.50
31121;BME280;17770;45.966;13.632;2023-06-14T06:05:58;100017.56;;;26.80;44.79
31121;BME280;17770;45.966;13.632;2023-06-14T06:08:24;100019.38;;;26.80;44.91
31121;BME280;17770;45.966;13.632;2023-06-14T06:10:50;100020.53;;;26.77;44.44
31121;BME280;17770;45.966;13.632;2023-06-14T06:13:16;100016.88;;;26.78;44.57
31121;BME280;17770;45.966;13.632;2023-06-14T06:15:42;100017.88;;;26.77;44.84
31121;BME280;17770;45.966;13.632;2023-06-14T06:18:08;100029.28;;;26.78;44.54
31121;BME280;17770;45.966;13.632;2023-06-14T06:20:33;100031.78;;;26.79;44.74
31121;BME280;17770;45.966;13.632;2023-06-14T06:22:59;100033.78;;;26.77;44.58
31121;BME280;17770;45.966;13.632;2023-06-14T06:25:26;100036.41;;;26.77;44.67
31121;BME280;17770;45.966;13.632;2023-06-14T06:27:53;100031.94;;;26.78;44.77
31121;BME280;17770;45.966;13.632;2023-06-14T06:30:19;100035.41;;;26.78;44.65
31121;BME280;17770;45.966;13.632;2023-06-14T06:32:46;100044.03;;;26.80;44.72
31121;BME280;17770;45.966;13.632;2023-06-14T06:35:11;100045.16;;;26.78;44.52
31121;BME280;17770;45.966;13.632;2023-06-14T06:37:39;100041.53;;;26.79;44.43
31121;BME280;17770;45.966;13.632;2023-06-14T06:40:05;100044.03;;;26.80;44.32
31121;BME280;17770;45.966;13.632;2023-06-14T06:42:31;100050.97;;;26.81;44.75
31121;BME280;17770;45.966;13.632;2023-06-14T06:45:02;100049.34;;;26.80;44.60
31121;BME280;17770;45.966;13.632;2023-06-14T06:47:28;100056.44;;;26.80;44.67
31121;BME280;17770;45.966;13.632;2023-06-14T06:49:53;100059.06;;;26.80;44.32
31121;BME280;17770;45.966;13.632;2023-06-14T06:52:19;100062.03;;;26.77;44.29
31121;BME280;17770;45.966;13.632;2023-06-14T06:54:45;100065.53;;;26.77;44.49
31121;BME280;17770;45.966;13.632;2023-06-14T06:57:12;100067.34;;;26.77;44.34
31121;BME280;17770;45.966;13.632;2023-06-14T06:59:38;100060.06;;;26.79;44.66
31121;BME280;17770;45.966;13.632;2023-06-14T07:02:04;100065.38;;;26.79;44.56
31121;BME280;17770;45.966;13.632;2023-06-14T07:04:30;100054.63;;;26.80;44.64
31121;BME280;17770;45.966;13.632;2023-06-14T07:06:57;100064.22;;;26.81;44.62
31121;BME280;17770;45.966;13.632;2023-06-14T07:09:22;100060.72;;;26.81;44.45
31121;BME280;17770;45.966;13.632;2023-06-14T07:11:50;100066.88;;;26.81;44.50
31121;BME280;17770;45.966;13.632;2023-06-14T07:14:16;100067.69;;;26.82;44.56
31121;BME280;17770;45.966;13.632;2023-06-14T07:16:42;100075.81;;;26.80;44.24
31121;BME280;17770;45.966;13.632;2023-06-14T07:19:08;100070.50;;;26.80;44.51
31121;BME280;17770;45.966;13.632;2023-06-14T07:21:34;100069.66;;;26.80;44.43
31121;BME280;17770;45.966;13.632;2023-06-14T07:24:03;100069.31;;;26.75;44.26
31121;BME280;17770;45.966;13.632;2023-06-14T07:26:29;100070.66;;;26.79;44.38
31121;BME280;17770;45.966;13.632;2023-06-14T07:28:55;100062.72;;;26.79;44.32
31121;BME280;17770;45.966;13.632;2023-06-14T07:31:21;100067.34;;;26.77;44.44
31121;BME280;17770;45.966;13.632;2023-06-14T07:33:47;100062.72;;;26.79;44.24
31121;BME280;17770;45.966;13.632;2023-06-14T07:36:13;100068.03;;;26.79;44.20
31121;BME280;17770;45.966;13.632;2023-06-14T07:38:38;100060.88;;;26.79;43.98
31121;BME280;17770;45.966;13.632;2023-06-14T07:41:06;100064.38;;;26.80;43.79
31121;BME280;17770;45.966;13.632;2023-06-14T07:43:32;100064.53;;;26.78;44.02
31121;BME280;17770;45.966;13.632;2023-06-14T07:45:57;100062.56;;;26.80;43.71
31121;BME280;17770;45.966;13.632;2023-06-14T07:48:23;100055.78;;;26.86;43.68
31121;BME280;17770;45.966;13.632;2023-06-14T07:50:49;100062.63;;;26.88;43.46
31121;BME280;17770;45.966;13.632;2023-06-14T07:53:15;100067.91;;;26.88;43.01
31121;BME280;17770;45.966;13.632;2023-06-14T07:55:41;100068.75;;;26.89;43.42
31121;BME280;17770;45.966;13.632;2023-06-14T07:58:08;100064.41;;;26.88;43.39
31121;BME280;17770;45.966;13.632;2023-06-14T08:00:34;100073.19;;;26.88;43.16
31121;BME280;17770;45.966;13.632;2023-06-14T08:03:00;100076.00;;;26.87;42.85
31121;BME280;17770;45.966;13.632;2023-06-14T08:05:26;100081.31;;;26.87;42.81
31121;BME280;17770;45.966;13.632;2023-06-14T08:07:52;100079.34;;;26.89;43.02
31121;BME280;17770;45.966;13.632;2023-06-14T08:10:18;100071.84;;;26.84;42.76
31121;BME280;17770;45.966;13.632;2023-06-14T08:12:44;100078.28;;;26.82;42.76
31121;BME280;17770;45.966;13.632;2023-06-14T08:15:10;100066.69;;;26.83;42.89
31121;BME280;17770;45.966;13.632;2023-06-14T08:17:36;100070.34;;;26.82;43.00
31121;BME280;17770;45.966;13.632;2023-06-14T08:20:02;100071.84;;;26.84;42.87
31121;BME280;17770;45.966;13.632;2023-06-14T08:22:30;100073.53;;;26.85;42.83
31121;BME280;17770;45.966;13.632;2023-06-14T08:25:02;100071.53;;;26.87;42.81
31121;BME280;17770;45.966;13.632;2023-06-14T08:27:29;100071.53;;;26.87;42.81
31121;BME280;17770;45.966;13.632;2023-06-14T08:29:55;100074.03;;;26.89;42.81
31121;BME280;17770;45.966;13.632;2023-06-14T08:32:22;100070.03;;;26.85;42.86
31121;BME280;17770;45.966;13.632;2023-06-14T08:34:48;100067.91;;;26.88;42.79
31121;BME280;17770;45.966;13.632;2023-06-14T08:37:14;100071.25;;;26.90;42.83
31121;BME280;17770;45.966;13.632;2023-06-14T08:39:40;100074.03;;;26.89;42.58
31121;BME280;17770;45.966;13.632;2023-06-14T08:42:06;100073.03;;;26.90;42.82
31121;BME280;17770;45.966;13.632;2023-06-14T08:44:33;100076.00;;;26.87;42.65
31121;BME280;17770;45.966;13.632;2023-06-14T08:46:59;100071.53;;;26.87;42.35
31121;BME280;17770;45.966;13.632;2023-06-14T08:49:25;100082.78;;;26.89;42.60
31121;BME280;17770;45.966;13.632;2023-06-14T08:51:58;100079.19;;;26.90;42.16
31121;BME280;17770;45.966;13.632;2023-06-14T08:54:27;100076.44;;;26.82;42.51
31121;BME280;17770;45.966;13.632;2023-06-14T08:56:56;100087.03;;;26.82;42.60
31121;BME280;17770;45.966;13.632;2023-06-14T08:59:28;100081.13;;;26.88;42.46
31121;BME280;17770;45.966;13.632;2023-06-14T09:01:54;100083.31;;;26.93;42.36
31121;BME280;17770;45.966;13.632;2023-06-14T09:04:23;100081.34;;;26.95;42.35
31121;BME280;17770;45.966;13.632;2023-06-14T09:06:51;100086.66;;;26.95;42.44
31121;BME280;17770;45.966;13.632;2023-06-14T09:09:19;100089.13;;;26.97;42.76
31121;BME280;17770;45.966;13.632;2023-06-14T09:11:45;100089.97;;;26.97;42.64
31121;BME280;17770;45.966;13.632;2023-06-14T09:14:12;100085.19;;;27.01;42.45
31121;BME280;17770;45.966;13.632;2023-06-14T09:16:37;100089.81;;;26.99;42.53
31121;BME280;17770;45.966;13.632;2023-06-14T09:19:03;100095.47;;;27.04;42.25
31121;BME280;17770;45.966;13.632;2023-06-14T09:21:29;100094.94;;;27.00;42.61
31121;BME280;17770;45.966;13.632;2023-06-14T09:23:59;100089.81;;;26.99;42.54
31121;BME280;17770;45.966;13.632;2023-06-14T09:26:25;100089.25;;;26.87;42.66
31121;BME280;17770;45.966;13.632;2023-06-14T09:28:53;100093.91;;;26.67;43.31
31121;BME280;17770;45.966;13.632;2023-06-14T09:31:20;100092.50;;;26.63;43.43
31121;BME280;17770;45.966;13.632;2023-06-14T09:33:48;100092.50;;;26.63;43.56
31121;BME280;17770;45.966;13.632;2023-06-14T09:36:15;100094.16;;;26.64;43.54
31121;BME280;17770;45.966;13.632;2023-06-14T09:38:41;100096.69;;;26.66;43.34
31121;BME280;17770;45.966;13.632;2023-06-14T09:41:07;100085.28;;;26.65;43.71
31121;BME280;17770;45.966;13.632;2023-06-14T09:43:33;100088.63;;;26.67;43.44
31121;BME280;17770;45.966;13.632;2023-06-14T09:46:00;100091.91;;;26.69;43.89
31121;BME280;17770;45.966;13.632;2023-06-14T09:48:26;100093.59;;;26.70;44.19
31121;BME280;17770;45.966;13.632;2023-06-14T09:50:52;100096.25;;;26.70;43.82
31121;BME280;17770;45.966;13.632;2023-06-14T09:53:21;100097.72;;;26.73;43.46
31121;BME280;17770;45.966;13.632;2023-06-14T09:55:48;100094.94;;;26.74;43.37
31121;BME280;17770;45.966;13.632;2023-06-14T09:58:15;100095.78;;;26.75;43.73
31121;BME280;17770;45.966;13.632;2023-06-14T10:00:42;100093.13;;;26.75;44.27
31121;BME280;17770;45.966;13.632;2023-06-14T10:03:12;100090.31;;;26.76;44.04
31121;BME280;17770;45.966;13.632;2023-06-14T10:05:39;100091.84;;;26.79;44.00
31121;BME280;17770;45.966;13.632;2023-06-14T10:08:08;100094.16;;;26.82;44.29
31121;BME280;17770;45.966;13.632;2023-06-14T10:10:36;100094.00;;;26.83;44.07
31121;BME280;17770;45.966;13.632;2023-06-14T10:13:04;100091.22;;;26.85;44.12
31121;BME280;17770;45.966;13.632;2023-06-14T10:15:35;100090.88;;;26.88;43.44
31121;BME280;17770;45.966;13.632;2023-06-14T10:18:24;100089.94;;;26.89;43.85
31121;BME280;17770;45.966;13.632;2023-06-14T10:20:58;100095.06;;;26.90;44.07
31121;BME280;17770;45.966;13.632;2023-06-14T10:23:27;100091.41;;;26.91;44.21
31121;BME280;17770;45.966;13.632;2023-06-14T10:25:55;100088.69;;;27.09;44.45
31121;BME280;17770;45.966;13.632;2023-06-14T10:28:21;100089.06;;;27.40;43.17
31121;BME280;17770;45.966;13.632;2023-06-14T10:31:03;100083.91;;;27.30;43.93
31121;BME280;17770;45.966;13.632;2023-06-14T10:33:32;100085.63;;;27.22;43.79
31121;BME280;17770;45.966;13.632;2023-06-14T10:38:34;100084.50;;;27.58;43.98
31121;BME280;17770;45.966;13.632;2023-06-14T10:41:02;100085.00;;;27.53;44.22
31121;BME280;17770;45.966;13.632;2023-06-14T10:43:28;100081.69;;;27.59;43.83
31121;BME280;17770;45.966;13.632;2023-06-14T10:46:13;100075.22;;;27.62;43.88
31121;BME280;17770;45.966;13.632;2023-06-14T10:48:40;100079.22;;;27.66;44.07
31121;BME280;17770;45.966;13.632;2023-06-14T10:51:17;100071.94;;;27.68;44.38
31121;BME280;17770;45.966;13.632;2023-06-14T10:53:47;100068.78;;;27.64;44.74
31121;BME280;17770;45.966;13.632;2023-06-14T10:56:29;100067.31;;;27.70;44.32
31121;BME280;17770;45.966;13.632;2023-06-14T10:58:56;100063.34;;;27.74;44.53
31121;BME280;17770;45.966;13.632;2023-06-14T11:01:37;100061.19;;;27.77;44.97
31121;BME280;17770;45.966;13.632;2023-06-14T11:04:07;100059.06;;;27.81;44.66
31121;BME280;17770;45.966;13.632;2023-06-14T11:06:41;100059.56;;;27.84;44.76
31121;BME280;17770;45.966;13.632;2023-06-14T11:11:56;100057.28;;;27.89;44.77
31121;BME280;17770;45.966;13.632;2023-06-14T11:14:22;100058.72;;;27.76;45.23
31121;BME280;17770;45.966;13.632;2023-06-14T11:16:48;100057.88;;;27.83;45.61
31121;BME280;17770;45.966;13.632;2023-06-14T11:19:14;100058.22;;;27.88;44.65
31121;BME280;17770;45.966;13.632;2023-06-14T11:21:43;100051.81;;;27.91;44.27
31121;BME280;17770;45.966;13.632;2023-06-14T11:24:12;100047.84;;;27.95;43.76
31121;BME280;17770;45.966;13.632;2023-06-14T11:26:38;100044.88;;;27.98;43.69
31121;BME280;17770;45.966;13.632;2023-06-14T11:29:04;100042.88;;;28.00;43.38
31121;BME280;17770;45.966;13.632;2023-06-14T11:31:30;100042.56;;;28.03;42.97
31121;BME280;17770;45.966;13.632;2023-06-14T11:33:57;100043.88;;;28.07;43.34
31121;BME280;17770;45.966;13.632;2023-06-14T11:36:26;100043.72;;;28.08;42.75
31121;BME280;17770;45.966;13.632;2023-06-14T11:38:59;100035.41;;;28.11;43.25
31121;BME280;17770;45.966;13.632;2023-06-14T11:41:25;100026.50;;;28.12;43.95
31121;BME280;17770;45.966;13.632;2023-06-14T11:43:54;100030.63;;;28.15;43.52
31121;BME280;17770;45.966;13.632;2023-06-14T11:46:20;100020.69;;;28.17;43.34
31121;BME280;17770;45.966;13.632;2023-06-14T11:48:49;100016.19;;;27.93;43.63
31121;BME280;17770;45.966;13.632;2023-06-14T11:51:18;100011.38;;;28.05;42.81
31121;BME280;17770;45.966;13.632;2023-06-14T11:53:44;100017.03;;;28.18;43.73
31121;BME280;17770;45.966;13.632;2023-06-14T11:56:10;100014.06;;;28.21;47.24
31121;BME280;17770;45.966;13.632;2023-06-14T11:58:36;100019.53;;;28.28;45.32
31121;BME280;17770;45.966;13.632;2023-06-14T12:01:05;100015.19;;;28.27;45.18
31121;BME280;17770;45.966;13.632;2023-06-14T12:03:32;100012.41;;;28.36;47.40
31121;BME280;17770;45.966;13.632;2023-06-14T12:06:07;100009.06;;;28.42;47.55
31121;BME280;17770;45.966;13.632;2023-06-14T12:08:34;100000.59;;;28.47;46.04
31121;BME280;17770;45.966;13.632;2023-06-14T12:11:07;100001.13;;;28.50;46.55
31121;BME280;17770;45.966;13.632;2023-06-14T12:13:39;99998.13;;;28.53;46.01
31121;BME280;17770;45.966;13.632;2023-06-14T12:16:08;99997.78;;;28.56;47.48
31121;BME280;17770;45.966;13.632;2023-06-14T12:18:35;99994.13;;;28.41;46.30
31121;BME280;17770;45.966;13.632;2023-06-14T12:21:03;99989.53;;;28.11;48.32
31121;BME280;17770;45.966;13.632;2023-06-14T12:23:40;99987.00;;;28.50;45.08
31121;BME280;17770;45.966;13.632;2023-06-14T12:26:07;99984.84;;;28.61;45.84
31121;BME280;17770;45.966;13.632;2023-06-14T12:28:33;99980.00;;;28.65;44.43
31121;BME280;17770;45.966;13.632;2023-06-14T12:30:59;99987.47;;;28.69;43.15
31121;BME280;17770;45.966;13.632;2023-06-14T12:33:25;99984.97;;;28.76;43.24
31121;BME280;17770;45.966;13.632;2023-06-14T12:35:53;99974.19;;;28.77;43.82
31121;BME280;17770;45.966;13.632;2023-06-14T12:38:20;99979.47;;;28.85;44.59
31121;BME280;17770;45.966;13.632;2023-06-14T12:40:46;99979.13;;;28.88;44.24
31121;BME280;17770;45.966;13.632;2023-06-14T12:43:12;99974.78;;;28.95;44.71
31121;BME280;17770;45.966;13.632;2023-06-14T12:45:38;99978.47;;;28.86;43.99
31121;BME280;17770;45.966;13.632;2023-06-14T12:48:04;99966.13;;;29.09;44.50
31121;BME280;17770;45.966;13.632;2023-06-14T12:50:30;99972.09;;;29.11;44.50
31121;BME280;17770;45.966;13.632;2023-06-14T12:52:56;99976.88;;;29.16;45.07
31121;BME280;17770;45.966;13.632;2023-06-14T12:55:21;99964.03;;;29.27;45.17